Thunder radar more information blitzortung!


Radar de pluja more information rain snow radar


Visita la nostra xarxa de llocs de meteo:

Template documentation
and downloads

And another site



Extreme low temperature From: 23-02-2018 00:00 Until: 09:59 warning for: Extreme low temperature Level: Yellow info button

Pagina Historial Weather Underground text

Diari Resum Desembre 8, 2017 Unitats:  Imperial    Mètric   Tant
« Previous Dia
SegĂźent Dia »
Diari Setmana Mensual Anual Personalitzada
  Maxima: Minima: Media:
Temperatura: TemperatureC °F 2.5 °F 5.9 °F
Punt de rosada: DewpointC °F -4.5 °F -1.3 °F
Humitat: Humidity % 55 % 60 %
Wind Speed: WindSpeedKMH mph 0.0 mph 4.2 mph
RĂ fegues de vent: WindSpeedGustKMH mph - -
Vent:- - SSE
Pression baro: PressurehPa in 1018.8 in -
Precipitacions: 0.0 in    
Historical Graphs
 
 
Dades de taula per Desembre 8, 2017
Temps Temperatura Punt de rosada Pression baro Vent Wind Speed RĂ fegues de vent Humitat Rainfall Rate (Hourly)
TemperatureC °F DewpointC °F PressurehPa in Calm     Humidity % HourlyPrecipMM in
00:00 5.2 °F -2.9 °F 1026.0 in Calm     56 % 0.0 in
00:01 5.1 °F -2.9 °F 1026.0 in SW 3.7 mph 3.7 mph 56 % 0.0 in
00:05 2.5 °F -4.5 °F 1022.9 in WSW 1.6 mph 4.8 mph 60 % 0.0 in
00:06 5.0 °F -3.1 °F 1026.0 in SW 1.9 mph 1.9 mph 56 % 0.0 in
00:25 2.6 °F -4.2 °F 1022.9 in WSW 1.6 mph 3.2 mph 61 % 0.0 in
00:35 2.5 °F -4.3 °F 1022.9 in NW 1.6 mph 3.2 mph 61 % 0.0 in
01:05 2.6 °F -3.9 °F 1022.9 in Calm   3.2 mph 62 % 0.0 in
01:25 2.7 °F -3.9 °F 1022.9 in NNE 1.6 mph 4.8 mph 62 % 0.0 in
01:55 2.8 °F -3.8 °F 1022.9 in NE 3.2 mph 4.8 mph 62 % 0.0 in
02:05 2.8 °F -3.8 °F 1022.9 in NE 3.2 mph 3.2 mph 62 % 0.0 in
08:06 2.8 °F -3.8 °F 1022.9 in Calm   1.4 mph 62 % 0.0 in
08:11 2.8 °F -3.8 °F 1022.9 in ENE 6.4 mph 6.4 mph 62 % 0.0 in
08:21 3.0 °F -3.6 °F 1022.9 in NNE 5.8 mph 5.8 mph 62 % 0.0 in
08:26 3.0 °F -3.6 °F 1022.9 in ENE 5.6 mph 5.6 mph 62 % 0.0 in
08:36 2.9 °F -3.7 °F 1022.9 in NW 6.1 mph 6.1 mph 62 % 0.0 in
08:38 2.9 °F -3.7 °F 1022.9 in West 5.6 mph 5.6 mph 62 % 0.0 in
08:43 3.0 °F -3.6 °F 1022.9 in North 7.4 mph 7.4 mph 62 % 0.0 in
08:53 3.1 °F -3.5 °F 1022.9 in NNW 5.6 mph 5.6 mph 62 % 0.0 in
08:58 3.2 °F -3.4 °F 1022.9 in NNW 5.6 mph 5.6 mph 62 % 0.0 in
09:03 3.3 °F -3.5 °F 1022.9 in North 4.2 mph 4.2 mph 61 % 0.0 in
09:08 3.4 °F -3.4 °F 1022.9 in North 3.7 mph 3.7 mph 61 % 0.0 in
09:28 3.8 °F -3.1 °F 1022.9 in SSE 5.6 mph 5.6 mph 61 % 0.0 in
09:33 4.2 °F -2.7 °F 1022.9 in East 3.9 mph 3.9 mph 61 % 0.0 in
09:38 4.3 °F -2.6 °F 1022.9 in ENE 5.6 mph 5.6 mph 61 % 0.0 in
09:43 4.6 °F -2.3 °F 1022.9 in West 5.6 mph 5.6 mph 61 % 0.0 in
09:48 4.6 °F -2.3 °F 1022.9 in ESE 9.3 mph 9.3 mph 61 % 0.0 in
09:53 4.6 °F -2.5 °F 1022.9 in NNE 4.2 mph 4.2 mph 60 % 0.0 in
09:58 4.7 °F -2.4 °F 1022.9 in NNW 5.6 mph 5.6 mph 60 % 0.0 in
10:03 4.7 °F -2.4 °F 1022.9 in NNW 3.7 mph 3.7 mph 60 % 0.0 in
10:08 4.8 °F -2.3 °F 1022.9 in NNE 3.7 mph 3.7 mph 60 % 0.0 in
10:09 4.8 °F -2.3 °F 1022.9 in NNE 3.9 mph 3.9 mph 60 % 0.0 in
10:14 5.0 °F -2.1 °F 1022.9 in NE 3.7 mph   60 % 0.0 in
10:19 5.1 °F -2.1 °F 1022.9 in NNW 3.7 mph 3.7 mph 60 % 0.0 in
10:29 5.2 °F -1.9 °F 1022.9 in ESE 5.8 mph 5.8 mph 60 % 0.0 in
10:34 5.3 °F -1.8 °F 1022.9 in NNE 4.7 mph 4.7 mph 60 % 0.0 in
10:39 5.4 °F -2.0 °F 1022.9 in NNE 3.9 mph 3.9 mph 59 % 0.0 in
10:44 5.4 °F -2.0 °F 1022.9 in NE 5.6 mph 5.6 mph 59 % 0.0 in
10:49 5.5 °F -1.9 °F 1022.9 in NNW 5.6 mph 5.6 mph 59 % 0.0 in
10:54 5.5 °F -1.9 °F 1022.9 in WNW 7.4 mph 7.4 mph 59 % 0.0 in
10:59 5.6 °F -1.8 °F 1021.9 in NNW 3.7 mph 3.7 mph 59 % 0.0 in
11:14 5.7 °F -1.7 °F 1021.9 in NNW 9.3 mph 9.3 mph 59 % 0.0 in
11:19 5.8 °F -1.8 °F 1021.9 in ENE 6.9 mph 6.9 mph 58 % 0.0 in
11:24 5.8 °F -1.8 °F 1021.9 in NNW 5.6 mph 5.6 mph 58 % 0.0 in
11:29 5.8 °F -1.8 °F 1021.9 in NNW 7.4 mph 7.4 mph 58 % 0.0 in
11:34 5.9 °F -1.7 °F 1021.9 in South 9.3 mph 9.3 mph 58 % 0.0 in
11:44 6.0 °F -1.7 °F 1021.9 in SW 5.6 mph 5.8 mph 58 % 0.0 in
11:49 6.1 °F -1.6 °F 1021.9 in NNE 9.3 mph 9.3 mph 58 % 0.0 in
11:54 6.1 °F -1.6 °F 1021.9 in NNW 5.6 mph 5.6 mph 58 % 0.0 in
11:59 6.1 °F -1.8 °F 1021.9 in ESE 5.6 mph 5.6 mph 57 % 0.0 in
12:04 6.0 °F -1.9 °F 1021.9 in NNE 9.3 mph 9.3 mph 57 % 0.0 in
12:09 6.0 °F -1.9 °F 1021.9 in NE 7.4 mph 7.4 mph 57 % 0.0 in
12:14 6.1 °F -1.8 °F 1021.9 in West 9.3 mph 9.3 mph 57 % 0.0 in
12:19 6.1 °F -1.8 °F 1021.9 in NNE 7.4 mph 7.4 mph 57 % 0.0 in
12:29 6.2 °F -1.7 °F 1021.9 in NNE 9.0 mph 9.0 mph 57 % 0.0 in
12:39 6.4 °F -1.5 °F 1021.9 in NE 5.6 mph 5.6 mph 57 % 0.0 in
12:44 6.5 °F -1.4 °F 1021.9 in ENE 7.4 mph 7.4 mph 57 % 0.0 in
12:49 6.5 °F -1.4 °F 1021.9 in NNE 7.4 mph 7.4 mph 57 % 0.0 in
12:54 6.5 °F -1.4 °F 1021.9 in WNW 3.7 mph 3.9 mph 57 % 0.0 in
12:59 6.6 °F -1.3 °F 1021.9 in NE 3.7 mph 3.7 mph 57 % 0.0 in
13:04 6.6 °F -1.3 °F 1021.9 in ENE 7.4 mph 7.4 mph 57 % 0.0 in
13:14 6.8 °F -1.1 °F 1021.9 in NNE 7.4 mph 7.4 mph 57 % 0.0 in
13:19 6.9 °F -1.1 °F 1021.9 in East 5.6 mph 5.6 mph 57 % 0.0 in
13:24 7.0 °F -0.9 °F 1021.9 in NW 6.1 mph 6.1 mph 57 % 0.0 in
13:29 7.0 °F -0.9 °F 1020.9 in NNE 7.4 mph 7.4 mph 57 % 0.0 in
13:34 7.0 °F -1.2 °F 1020.9 in ENE 7.4 mph 7.4 mph 56 % 0.0 in
13:39 7.0 °F -1.2 °F 1020.9 in NNE 5.6 mph 5.6 mph 56 % 0.0 in
13:54 7.2 °F -1.0 °F 1020.9 in NNE 11.1 mph 11.1 mph 56 % 0.0 in
13:59 7.3 °F -0.9 °F 1020.9 in ESE 4.2 mph 5.0 mph 56 % 0.0 in
14:09 7.5 °F -0.7 °F 1020.9 in NW 7.4 mph 7.4 mph 56 % 0.0 in
14:14 7.6 °F -0.6 °F 1019.9 in NNW 9.3 mph 9.3 mph 56 % 0.0 in
14:19 7.6 °F -0.6 °F 1019.9 in ENE 4.7 mph 4.7 mph 56 % 0.0 in
14:24 7.6 °F -0.6 °F 1019.9 in ENE 9.3 mph 9.3 mph 56 % 0.0 in
14:34 7.6 °F -0.6 °F 1020.9 in NNW 9.3 mph 9.3 mph 56 % 0.0 in
14:39 7.7 °F -0.6 °F 1020.9 in ENE 9.3 mph 9.3 mph 56 % 0.0 in
14:44 7.9 °F -0.3 °F 1020.9 in ENE 5.6 mph 5.6 mph 56 % 0.0 in
14:49 8.1 °F -0.2 °F 1020.9 in NNW 1.9 mph 1.9 mph 56 % 0.0 in
14:54 8.2 °F -0.1 °F 1020.9 in NNE 3.5 mph 3.5 mph 56 % 0.0 in
15:04 8.4 °F 0.1 °F 1019.9 in ENE 6.4 mph 6.4 mph 56 % 0.0 in
15:09 8.4 °F 0.1 °F 1019.9 in NE 7.9 mph 7.9 mph 56 % 0.0 in
15:24 8.5 °F 0.2 °F 1020.9 in NE 13.0 mph 13.0 mph 56 % 0.0 in
15:29 8.6 °F 0.3 °F 1019.9 in NNE 9.3 mph 9.3 mph 56 % 0.0 in
15:34 8.7 °F 0.4 °F 1019.9 in NNE 7.4 mph 7.4 mph 56 % 0.0 in
15:39 8.7 °F 0.4 °F 1019.9 in NNE 5.6 mph 5.6 mph 56 % 0.0 in
15:44 8.7 °F 0.4 °F 1020.9 in NNE 7.4 mph 7.4 mph 56 % 0.0 in
15:49 8.7 °F 0.4 °F 1020.9 in ENE 11.1 mph 11.1 mph 56 % 0.0 in
15:54 8.6 °F 0.1 °F 1020.9 in North 5.0 mph 5.0 mph 55 % 0.0 in
15:59 8.6 °F 0.3 °F 1020.9 in NNE 5.3 mph 5.3 mph 56 % 0.0 in
16:04 8.6 °F 0.3 °F 1020.9 in NNW 5.6 mph 5.6 mph 56 % 0.0 in
16:14 8.5 °F 0.2 °F 1020.9 in North 3.7 mph 3.7 mph 56 % 0.0 in
16:24 8.5 °F 0.2 °F 1020.9 in NNW 3.7 mph 3.7 mph 56 % 0.0 in
16:29 8.6 °F 0.3 °F 1020.9 in NNE 3.7 mph 3.7 mph 56 % 0.0 in
16:34 8.5 °F 0.2 °F 1020.9 in West 3.7 mph 3.7 mph 56 % 0.0 in
16:39 8.5 °F 0.2 °F 1020.9 in NNE 7.4 mph 7.4 mph 56 % 0.0 in
16:44 8.4 °F 0.1 °F 1020.9 in ENE 2.3 mph 2.3 mph 56 % 0.0 in
16:49 8.3 °F 0.0 °F 1020.9 in NNE 5.6 mph 5.6 mph 56 % 0.0 in
16:59 8.1 °F -0.2 °F 1020.9 in NNE 3.9 mph 3.9 mph 56 % 0.0 in
17:04 8.0 °F -0.3 °F 1020.9 in NNW 3.7 mph 3.7 mph 56 % 0.0 in
17:09 8.0 °F -0.3 °F 1020.9 in WNW 1.9 mph   56 % 0.0 in
17:24 7.6 °F -0.4 °F 1020.9 in NNE 1.9 mph   57 % 0.0 in
17:34 7.4 °F -0.6 °F 1020.9 in NE 1.9 mph 1.9 mph 57 % 0.0 in
17:39 7.4 °F -0.6 °F 1020.9 in NNE 1.9 mph 1.9 mph 57 % 0.0 in
17:44 7.3 °F -0.4 °F 1021.9 in NE 1.9 mph   58 % 0.0 in
17:49 7.2 °F -0.5 °F 1021.9 in NNW 3.7 mph 3.7 mph 58 % 0.0 in
17:54 7.2 °F -0.5 °F 1021.9 in Calm     58 % 0.0 in
18:04 6.9 °F -0.8 °F 1021.9 in SSW 3.7 mph 3.7 mph 58 % 0.0 in
18:14 7.1 °F -0.4 °F 1020.9 in WSW 4.7 mph 4.7 mph 59 % 0.0 in
18:19 6.8 °F -0.7 °F 1020.9 in Calm     59 % 0.0 in
18:24 6.9 °F -0.6 °F 1020.9 in SW 1.9 mph 1.9 mph 59 % 0.0 in
18:29 6.9 °F -0.6 °F 1020.9 in WNW 2.3 mph   59 % 0.0 in
18:34 7.0 °F -0.5 °F 1020.9 in WNW 3.2 mph   59 % 0.0 in
18:44 7.0 °F -0.2 °F 1020.9 in WNW 1.9 mph   60 % 0.0 in
18:49 7.0 °F -0.2 °F 1020.9 in West 1.9 mph 1.9 mph 60 % 0.0 in
18:54 7.0 °F -0.2 °F 1020.9 in NNE 1.9 mph   60 % 0.0 in
19:04 7.0 °F -0.2 °F 1021.9 in WNW 3.7 mph 3.7 mph 60 % 0.0 in
19:05 7.1 °F -0.2 °F 1021.9 in NNW 1.6 mph 3.2 mph 60 % 0.0 in
19:15 6.9 °F -0.3 °F 1020.9 in WSW 1.9 mph 1.9 mph 60 % 0.0 in
19:25 6.5 °F -0.4 °F 1020.9 in Calm   3.2 mph 61 % 0.0 in
19:30 6.8 °F -0.2 °F 1020.9 in WNW 2.3 mph 2.3 mph 61 % 0.0 in
19:35 6.7 °F -0.3 °F 1020.9 in Calm   1.6 mph 61 % 0.0 in
19:40 6.4 °F -0.6 °F 1020.9 in Calm     61 % 0.0 in
19:45 6.2 °F -0.8 °F 1020.9 in WSW 3.7 mph 3.7 mph 61 % 0.0 in
19:50 6.2 °F -0.8 °F 1020.9 in WSW 3.7 mph 3.7 mph 61 % 0.0 in
19:55 6.1 °F -0.9 °F 1020.9 in WSW 3.7 mph 3.7 mph 61 % 0.0 in
20:00 6.1 °F -0.9 °F 1020.9 in Calm     61 % 0.0 in
20:05 6.0 °F -0.7 °F 1020.9 in NNW 1.9 mph 1.9 mph 62 % 0.0 in
20:10 6.0 °F -0.7 °F 1020.9 in North 1.9 mph 1.9 mph 62 % 0.0 in
20:15 6.0 °F -0.7 °F 1020.9 in NW 1.9 mph   62 % 0.0 in
20:20 6.1 °F -0.7 °F 1020.9 in NW 1.9 mph   62 % 0.0 in
20:25 6.1 °F -0.4 °F 1020.9 in NNE 3.7 mph 3.7 mph 63 % 0.0 in
20:30 6.0 °F -0.7 °F 1020.9 in NNE 4.7 mph 4.7 mph 62 % 0.0 in
20:50 5.6 °F -0.9 °F 1020.9 in Calm     63 % 0.0 in
20:55 5.6 °F -0.7 °F 1020.9 in Calm     64 % 0.0 in
21:05 5.5 °F -0.8 °F 1020.9 in Calm     64 % 0.0 in
21:20 5.6 °F -0.7 °F 1020.9 in NNW 1.4 mph   64 % 0.0 in
21:25 5.6 °F -0.7 °F 1020.9 in Calm     64 % 0.0 in
21:40 5.2 °F -1.1 °F 1019.9 in NNE 3.7 mph 3.7 mph 64 % 0.0 in
21:45 5.2 °F -0.8 °F 1020.9 in WSW 1.9 mph 1.9 mph 65 % 0.0 in
21:50 5.2 °F -0.8 °F 1020.9 in WSW 2.6 mph   65 % 0.0 in
21:55 5.3 °F -0.8 °F 1020.9 in WSW 2.3 mph 2.3 mph 65 % 0.0 in
22:05 5.3 °F -0.8 °F 1019.9 in WSW 1.9 mph 1.9 mph 65 % 0.0 in
22:15 5.3 °F -0.8 °F 1019.9 in SW 1.9 mph 1.9 mph 65 % 0.0 in
22:20 5.3 °F -0.6 °F 1019.9 in SW 2.6 mph   66 % 0.0 in
22:25 5.2 °F -0.8 °F 1019.9 in Calm     65 % 0.0 in
22:30 5.2 °F -0.7 °F 1019.9 in Calm     66 % 0.0 in
22:40 4.9 °F -0.9 °F 1019.9 in Calm     66 % 0.0 in
22:45 4.8 °F -1.0 °F 1019.9 in WSW 1.9 mph 1.9 mph 66 % 0.0 in
22:48 4.8 °F -1.0 °F 1019.9 in West 1.9 mph   66 % 0.0 in
22:53 4.8 °F -1.0 °F 1019.9 in Calm     66 % 0.0 in
22:58 4.7 °F -1.1 °F 1019.9 in NW 2.6 mph 2.6 mph 66 % 0.0 in
23:03 4.7 °F -1.1 °F 1019.9 in NW 1.9 mph   66 % 0.0 in
23:13 4.7 °F -0.9 °F 1019.9 in Calm     67 % 0.0 in
23:18 4.6 °F -1.0 °F 1019.9 in WNW 1.9 mph   67 % 0.0 in
23:23 4.5 °F -1.3 °F 1019.9 in WSW 1.9 mph 1.9 mph 66 % 0.0 in
23:33 4.5 °F -1.3 °F 1018.8 in WSW 3.7 mph 3.9 mph 66 % 0.0 in
23:38 4.2 °F -1.4 °F 1018.8 in WSW 3.7 mph 3.7 mph 67 % 0.0 in
23:43 4.3 °F -1.1 °F 1019.9 in NNE 3.7 mph 3.7 mph 68 % 0.0 in
23:53 4.2 °F -1.0 °F 1019.9 in SSE 3.7 mph   69 % 0.0 in
23:58 4.2 °F -1.0 °F 1019.9 in NE 1.9 mph 1.9 mph 69 % 0.0 in
Meteo Sesrovires
Elogis d' Weather Underground - 3.25 mb

Guio original per  Jim McMurry - jmcmurry@mwt.net Adaptat per a la plantilla per  Wim van der Kuil - Leuven-Template.eu

Trobareu la nostra informacio del temps tambe a:

Weather Underground

AWEKAS